Date,TemperatureHighF,TemperatureAvgF,TemperatureLowF,DewpointHighF,DewpointAvgF,DewpointLowF,HumidityHigh,HumidityAvg,HumidityLow,PressureMaxIn,PressureMinIn,WindSpeedMaxMPH,WindSpeedAvgMPH,GustSpeedMaxMPH,PrecipitationSumIn
2013-1-1,30.3,23.5,14.0,20.0,12.4,7.0,84,68,50,30.17,30.02,12,2,0,2.00
2013-1-2,27.6,20.1,10.9,18.0,13.5,6.0,89,80,70,30.20,30.09,7,2,0,0.00
2013-1-3,31.2,24.0,14.5,26.0,16.1,5.0,85,77,69,30.17,30.06,15,4,0,3.00
2013-1-4,32.5,28.3,24.4,24.0,19.0,15.0,84,73,58,30.19,30.04,19,6,0,3.00
2013-1-5,33.6,26.6,16.1,32.0,21.2,13.0,93,84,71,30.30,30.04,10,2,0,1.00
2013-1-6,37.2,34.8,33.6,36.0,30.0,26.0,100,85,76,30.27,29.92,11,3,0,7.00
2013-1-7,36.4,32.5,28.4,26.0,23.8,21.0,84,75,67,30.38,30.16,15,4,0,2.00
2013-1-8,37.2,28.0,22.8,27.0,22.9,20.0,93,84,69,30.27,30.17,10,2,0,2.00
2013-1-9,48.1,37.6,21.3,34.0,27.3,18.0,96,70,40,30.45,30.04,21,5,0,0.00
2013-1-10,41.7,33.5,24.0,34.0,27.1,21.0,94,81,60,30.58,30.19,9,2,0,11.00
2013-1-11,58.2,45.4,36.4,52.0,43.0,34.0,100,92,75,30.19,29.78,17,3,0,2.00
2013-1-12,59.3,51.1,45.6,53.0,47.8,44.0,98,89,76,29.96,29.85,7,2,0,1.00
2013-1-13,51.5,40.6,32.8,52.0,38.5,28.0,100,92,86,30.05,29.73,13,3,0,12.00
2013-1-14,32.5,26.4,18.5,27.0,18.0,15.0,91,75,63,30.43,30.06,8,1,0,12.00
2013-1-15,31.6,24.0,15.6,20.0,16.4,13.0,92,78,56,30.43,30.15,5,0,0,0.00
2013-1-16,40.2,30.8,21.3,27.0,20.1,17.0,92,69,39,30.15,29.82,14,4,0,0.00
2013-1-17,39.1,32.4,21.9,29.0,20.4,7.0,84,65,47,30.31,29.96,16,5,0,1.00
2013-1-18,35.0,27.6,17.6,23.0,14.2,5.0,69,61,53,30.43,29.99,14,4,0,1.00
2013-1-19,48.3,41.6,34.5,35.0,29.1,23.0,73,64,52,29.99,29.60,18,6,0,1.00
2013-1-20,45.1,25.2,18.7,34.0,9.5,3.0,69,55,43,30.19,29.58,32,9,0,1.00
2013-1-21,20.5,16.1,6.3,15.0,5.7,-4.0,85,70,58,30.15,29.96,12,4,0,2.00
2013-1-22,14.0,7.0,0.0,99.9,-2.3,-11.0,78,65,50,30.30,30.13,16,5,0,2.00
2013-1-23,19.6,13.0,5.9,11.0,3.7,-2.0,86,73,61,30.29,30.08,10,3,0,1.00
2013-1-24,22.6,15.0,9.0,10.0,2.9,-3.0,86,65,38,30.57,30.10,12,2,0,1.00
2013-1-25,23.7,19.4,15.8,18.0,12.0,4.0,90,78,65,30.49,30.01,10,2,0,0.00
2013-1-26,28.5,23.7,19.0,19.0,16.0,12.0,91,77,56,30.44,30.04,9,2,0,12.00
2013-1-27,30.7,23.1,13.1,28.0,16.8,9.0,93,81,58,30.48,30.10,13,2,0,2.00
2013-1-28,45.4,38.7,31.1,45.0,38.0,28.0,100,97,90,30.14,29.86,10,2,0,19.00
2013-1-29,58.7,47.0,37.2,56.0,46.5,36.0,100,98,88,30.02,29.49,11,3,0,25.00
2013-1-30,67.5,51.5,34.8,58.0,48.9,29.0,100,91,82,30.78,29.16,20,5,0,27.00
2013-1-31,34.3,25.8,18.1,27.0,16.5,11.0,89,73,61,29.89,29.29,23,9,0,0.00
2013-2-1,20.5,16.3,10.6,14.0,7.3,0.0,84,74,62,30.28,29.89,15,5,0,0.00
2013-2-2,25.5,18.6,11.1,21.0,11.9,5.0,87,80,73,30.22,29.94,11,3,0,0.00
2013-2-3,24.4,16.0,5.0,17.0,8.0,0.0,89,76,60,30.03,29.85,24,3,0,5.00
2013-2-4,25.7,21.7,18.5,20.0,15.8,8.0,87,82,69,30.03,29.87,6,1,0,3.00
2013-2-5,29.4,24.2,17.9,27.0,18.9,14.0,92,84,67,29.94,29.81,9,2,0,6.00
2013-2-6,33.7,25.2,12.9,25.0,16.0,9.0,92,73,53,30.30,29.95,10,2,0,4.00
2013-2-7,41.1,32.0,26.2,29.0,23.2,17.0,84,74,62,30.28,29.86,11,4,0,0.00
2013-2-8,32.0,27.8,16.3,30.0,22.4,13.0,95,84,69,30.34,29.77,15,2,0,1.00
2013-2-9,34.1,22.1,10.0,21.0,15.3,6.0,93,80,53,30.44,30.29,6,2,0,1.00
2013-2-10,40.2,30.9,18.3,36.0,25.2,15.0,94,83,60,30.29,29.70,9,3,0,13.00
2013-2-11,46.3,39.2,33.4,44.0,31.0,24.0,96,76,63,29.89,29.57,30,9,0,14.00
2013-2-12,34.6,32.8,30.0,25.0,22.9,20.0,77,72,65,30.05,29.88,15,5,0,0.00
2013-2-13,40.9,32.3,28.4,27.0,23.3,20.0,89,74,58,29.94,29.74,7,2,0,0.00
2013-2-14,41.1,35.8,28.9,36.0,30.4,26.0,94,84,68,29.85,29.69,21,4,0,0.00
2013-2-15,36.3,30.3,23.5,28.0,17.2,11.0,80,62,47,30.12,29.86,13,4,0,0.00
2013-2-16,29.3,22.6,17.2,21.0,13.9,8.0,86,74,55,30.11,29.97,12,2,0,0.00
2013-2-17,27.1,18.7,8.1,15.0,7.2,3.0,87,67,43,30.21,30.05,11,2,0,1.00
2013-2-18,48.8,32.8,16.0,37.0,20.4,5.0,75,64,47,30.21,29.62,14,4,0,0.00
2013-2-19,46.7,30.8,20.1,42.0,23.9,9.0,93,80,64,29.94,29.43,35,9,0,15.00
2013-2-20,24.8,21.8,17.4,15.0,10.3,5.0,80,67,57,30.23,29.94,21,6,0,0.00
2013-2-21,28.9,24.0,22.4,18.0,14.4,12.0,82,72,57,30.38,30.22,15,4,0,0.00
2013-2-22,35.2,29.0,23.7,35.0,25.6,17.0,99,89,76,30.25,29.89,18,5,0,0.00
2013-2-23,35.5,32.0,26.2,32.0,22.0,17.0,93,71,57,29.93,29.87,12,4,0,1.00
2013-2-24,38.6,30.6,23.7,27.0,22.4,17.0,90,76,59,30.15,29.91,12,3,0,1.00
2013-2-25,43.6,32.0,20.6,28.0,23.0,18.0,94,73,49,30.22,30.09,10,2,0,2.00
2013-2-26,36.8,32.9,28.7,34.0,27.2,20.0,99,83,65,30.12,29.51,15,4,0,8.00
2013-2-27,37.3,35.2,34.3,36.0,33.9,33.0,100,95,89,29.59,29.45,9,2,0,2.00
2013-2-28,39.5,35.4,31.8,35.0,31.0,25.0,97,86,74,29.96,29.56,10,4,0,1.00
2013-3-1,31.8,28.7,26.4,25.0,20.9,18.0,83,77,71,30.10,29.95,14,5,0,2.00
2013-3-2,28.7,26.8,25.1,21.0,19.3,17.0,84,78,72,30.08,30.04,9,3,0,0.00
2013-3-3,34.5,25.5,18.3,18.0,15.2,12.0,91,70,46,30.06,29.98,14,3,0,1.00
2013-3-4,87.5,26.1,14.9,20.0,15.4,10.0,91,69,40,30.15,27.79,7,1,0,1.00
2013-3-5,37.9,29.5,21.2,25.0,21.7,17.0,93,77,59,30.13,29.82,14,5,0,1.00
2013-3-6,41.7,34.5,28.4,30.0,26.4,22.0,88,76,61,30.20,29.83,11,4,0,0.00
2013-3-7,39.1,34.5,26.7,31.0,26.1,19.0,87,75,60,30.39,30.19,10,2,0,0.00
2013-3-8,47.2,33.2,22.4,29.0,23.1,17.0,87,71,46,30.48,30.38,11,1,0,0.00
2013-3-9,44.9,36.1,24.8,32.0,28.2,23.0,94,77,58,30.42,30.05,21,3,0,0.00
2013-3-10,64.1,49.9,33.9,48.0,38.4,30.0,91,67,48,30.04,29.81,9,2,0,0.00
2013-3-11,56.7,50.9,39.0,50.0,44.3,32.0,95,80,59,29.83,29.49,18,5,0,3.00
2013-3-12,39.0,36.0,30.2,33.0,29.2,24.0,89,80,68,29.93,29.71,12,5,0,4.00
2013-3-13,35.0,30.8,27.1,29.0,21.1,12.0,90,72,55,30.19,29.86,17,6,0,5.00
2013-3-14,44.5,33.2,23.1,23.0,18.3,11.0,79,57,36,30.25,30.08,11,4,0,0.00
2013-3-15,42.7,36.9,31.4,36.0,29.2,20.0,96,77,56,30.09,29.85,15,3,0,6.00
2013-3-16,35.9,31.6,29.1,35.0,27.0,20.0,96,86,70,30.04,29.76,6,0,0,1.00
2013-3-17,35.5,28.6,19.6,24.0,16.5,12.0,88,65,48,30.26,30.04,12,3,0,7.00
2013-3-18,36.8,32.0,24.0,36.0,27.6,14.0,98,86,72,30.18,29.56,15,6,0,4.00
2013-3-19,36.3,29.0,24.9,32.0,18.3,13.0,87,69,58,29.94,29.62,30,9,0,4.00
2013-3-20,31.8,26.9,19.4,18.0,13.7,7.0,76,62,49,29.95,29.88,21,6,0,0.00
2013-3-21,34.1,26.0,17.0,23.0,17.1,8.0,85,74,59,29.94,29.86,14,5,0,0.00
2013-3-22,43.3,33.1,27.8,24.0,20.0,16.0,81,62,42,30.02,29.93,10,4,0,0.00
2013-3-23,43.1,31.8,22.8,26.0,22.3,20.0,93,72,49,30.10,30.01,9,2,0,0.00
2013-3-24,39.0,32.1,24.9,27.0,23.2,19.0,91,74,50,30.05,29.63,17,4,0,0.00
2013-3-25,40.9,36.0,31.8,29.0,25.7,23.0,85,70,58,29.91,29.57,25,7,0,0.00
2013-3-26,47.0,38.5,34.3,32.0,28.2,25.0,81,70,49,30.11,29.91,14,4,0,0.00
2013-3-27,49.9,40.1,31.2,31.0,27.0,24.0,85,62,39,30.20,30.11,16,5,0,0.00
2013-3-28,55.7,43.9,31.4,32.0,27.3,22.0,79,52,31,30.26,30.20,12,4,0,1.00
2013-3-29,55.8,41.3,30.7,30.0,24.2,21.0,72,51,24,30.28,30.18,10,2,0,1.00
2013-3-30,58.4,43.8,27.6,32.0,26.5,21.0,82,51,19,30.22,29.94,11,2,0,0.00
2013-3-31,61.8,47.3,35.5,45.0,35.2,29.0,91,65,30,29.94,29.62,16,4,0,3.00
2013-4-1,44.7,35.6,28.2,32.0,18.2,11.0,75,50,28,30.10,29.70,15,6,0,0.00
2013-4-2,45.8,33.8,24.6,19.0,15.5,12.0,80,48,24,30.25,30.10,15,5,0,0.00
2013-4-3,45.1,34.2,24.6,20.0,15.7,12.0,72,47,23,30.41,30.24,16,3,0,7.00
2013-4-4,57.8,41.2,25.7,28.0,21.1,14.0,76,43,13,30.37,29.95,14,3,0,8.00
2013-4-5,51.7,44.2,34.8,31.0,24.5,20.0,78,44,22,30.21,29.94,14,4,0,2.00
2013-4-6,52.1,40.6,30.0,31.0,23.9,15.0,76,52,35,30.25,29.80,13,5,0,1.00
2013-4-7,58.9,54.0,41.3,47.0,38.2,29.0,75,55,33,30.03,29.63,23,6,0,1.00
2013-4-8,67.5,47.6,34.8,56.0,40.7,31.0,91,80,57,30.06,29.70,18,4,0,15.00
2013-4-9,57.1,49.1,43.8,47.0,43.7,41.0,93,83,67,30.10,29.89,11,3,0,1.00
2013-4-10,49.7,44.7,40.9,47.0,43.0,40.0,99,94,87,29.99,29.86,11,4,0,1.00
2013-4-11,40.9,39.5,38.1,41.0,38.2,36.0,99,95,91,29.98,29.63,17,6,0,25.00
2013-4-12,44.9,40.7,37.7,41.0,36.9,32.0,99,88,70,29.79,29.53,14,4,0,0.00
2013-4-13,44.2,40.7,38.6,39.0,31.3,26.0,91,72,54,30.00,29.78,19,6,0,2.00
2013-4-14,50.1,41.2,32.8,37.0,31.7,27.0,86,72,57,30.12,29.95,15,3,0,4.00
2013-4-15,69.7,55.2,36.3,56.0,45.6,33.0,92,72,53,29.98,29.88,17,3,0,1.00
2013-4-16,64.1,56.4,47.6,54.0,45.3,36.0,96,68,34,30.22,29.88,11,3,0,26.00
2013-4-17,58.4,49.2,41.7,45.0,37.1,30.0,94,65,44,30.33,30.06,13,5,0,27.00
2013-4-18,79.2,59.3,44.7,66.0,55.5,43.0,97,88,60,30.05,29.60,18,5,0,78.00
2013-4-19,59.4,47.0,39.0,59.0,40.3,28.0,99,80,63,29.77,29.36,22,7,0,29.00
2013-4-20,44.2,37.1,29.8,31.0,23.1,17.0,87,60,43,30.44,29.77,15,6,0,24.00
2013-4-21,49.0,37.2,24.2,32.0,24.9,20.0,93,65,40,30.61,30.44,15,3,0,2.00
2013-4-22,62.7,47.0,30.0,40.0,32.7,23.0,96,59,16,30.47,30.19,14,2,0,2.00
2013-4-23,71.7,54.9,38.2,56.0,44.0,33.0,97,68,36,30.20,29.81,21,3,0,13.00
2013-4-24,56.9,43.1,35.9,57.0,39.7,27.0,99,89,70,30.14,29.74,12,4,0,29.00
2013-4-25,53.5,41.5,32.0,42.0,32.4,26.0,90,74,42,30.34,30.11,14,4,0,17.00
2013-4-26,60.7,46.2,30.3,42.0,34.3,27.0,95,66,38,30.45,30.33,11,2,0,7.00
2013-4-27,69.5,54.4,35.5,46.0,40.1,35.0,97,59,22,30.37,30.11,10,2,0,4.00
2013-4-28,55.7,53.1,48.1,56.0,47.2,34.0,99,82,54,30.11,29.84,8,2,0,29.00
2013-4-29,71.5,62.7,52.1,57.0,54.8,50.0,100,77,55,29.95,29.84,8,2,0,0.00
2013-4-30,72.9,61.8,52.6,59.0,55.0,52.0,99,80,56,30.08,29.94,11,2,0,4.00
2013-5-1,81.7,66.7,48.3,63.0,56.1,47.0,100,69,41,30.24,30.08,12,2,0,0.00
2013-5-2,79.4,67.2,53.2,62.0,52.6,44.0,82,58,38,30.26,30.15,12,3,0,0.00
2013-5-3,77.1,67.3,56.7,60.0,48.6,42.0,65,47,19,30.15,30.06,13,3,0,0.00
2013-5-4,72.9,63.9,55.0,49.0,45.0,40.0,71,46,26,30.14,30.06,16,4,0,1.00
2013-5-5,73.3,62.9,52.3,48.0,43.2,39.0,67,44,21,30.12,30.02,15,3,0,1.00
2013-5-6,76.0,62.4,47.2,55.0,44.9,36.0,72,50,35,30.07,29.98,12,3,0,2.00
2013-5-7,76.9,64.4,51.5,57.0,49.3,40.0,69,57,39,30.07,30.00,15,2,0,1.00
2013-5-8,82.3,65.7,55.1,60.0,52.4,45.0,79,62,34,30.04,29.95,11,1,0,3.00
2013-5-9,82.4,67.7,51.4,62.0,54.5,47.0,90,62,36,29.99,29.90,7,1,0,3.00
2013-5-10,73.5,62.5,45.8,62.0,53.9,38.0,89,75,57,29.94,29.77,10,3,0,1.00
2013-5-11,64.1,50.2,41.3,49.0,41.5,31.0,84,75,52,29.92,29.75,16,3,0,17.00
2013-5-12,51.5,43.5,35.0,33.0,30.0,23.0,80,61,42,30.10,29.89,17,5,0,2.00
2013-5-13,58.0,43.7,29.3,34.0,27.9,22.0,83,55,26,30.17,30.09,15,2,0,1.00
2013-5-14,80.3,60.6,44.9,58.0,43.0,29.0,60,50,35,30.12,29.74,11,2,0,1.00
2013-5-15,85.9,72.6,56.0,61.0,54.2,47.0,85,48,23,29.82,29.62,18,4,0,1.00
2013-5-16,86.2,70.9,53.3,59.0,50.6,39.0,71,42,21,30.04,29.81,10,2,0,1.00
2013-5-17,75.8,63.3,50.1,52.0,44.8,37.0,67,47,29,30.16,30.04,11,3,0,0.00
2013-5-18,82.3,68.4,56.2,59.0,49.4,41.0,63,46,30,30.16,30.05,9,2,0,0.00
2013-5-19,82.4,74.6,68.1,66.0,61.8,58.0,72,63,53,29.95,29.92,6,1,0,0.00
2013-5-20,92.3,76.8,61.2,74.0,65.0,56.0,88,66,37,29.96,29.80,12,2,0,0.00
2013-5-21,87.1,77.8,70.6,69.0,65.1,62.0,84,64,38,29.85,29.74,13,2,0,1.00
2013-5-22,84.1,69.3,62.9,99.9,63.6,60.0,91,76,44,29.78,21.51,13,2,0,2.00
2013-5-23,70.0,48.4,0.0,99.9,25.6,-99.9,96,84,72,29.92,29.72,13,-236,0,2.00
2013-5-24,78.0,39.2,32.0,99.9,50.3,24.0,97,67,45,30.35,29.92,11,3,0,2.00
2013-5-25,69.0,52.6,35.7,45.0,38.9,34.0,96,61,29,30.40,30.27,7,1,0,1.00
2013-5-26,72.9,65.5,53.5,46.0,41.9,36.0,55,33,20,30.35,30.23,6,2,0,0.00
2013-5-27,60.7,48.5,43.6,47.0,37.9,36.0,79,69,46,30.28,30.22,6,1,0,0.00
2013-6-5,76.0,68.0,57.3,55.0,48.0,44.0,69,43,31,30.05,30.00,9,2,0,0.00
2013-6-6,72.2,62.3,56.2,57.0,49.2,42.0,71,62,52,30.01,29.86,10,2,0,0.00
2013-6-7,63.4,58.1,51.7,54.0,51.4,48.0,93,80,71,29.93,29.89,8,2,0,0.00
2013-6-8,74.4,65.1,58.0,58.0,53.7,51.0,82,67,47,30.09,29.92,5,1,0,0.00
2013-6-9,76.9,67.6,57.6,62.0,57.2,53.0,93,70,48,30.13,29.97,14,3,0,0.00
2013-6-10,72.9,67.1,61.8,69.0,64.5,56.0,97,91,70,29.98,29.75,6,1,0,1.00
2013-6-11,84.2,73.6,65.6,68.0,65.4,64.0,96,76,50,29.92,29.79,10,2,0,0.00
2013-6-12,79.6,71.4,63.9,70.0,65.3,60.0,94,82,69,29.96,29.68,9,1,0,0.00
2013-6-13,79.7,70.0,61.8,66.0,61.5,57.0,99,75,46,29.94,29.55,12,3,0,11.00
2013-6-14,79.0,68.4,59.1,61.0,56.4,52.0,90,65,37,30.09,29.94,8,2,0,0.00
2013-6-15,82.3,68.7,57.1,66.0,59.7,54.0,95,74,48,30.10,29.95,9,2,0,1.00
2013-6-16,85.0,72.9,64.5,69.0,63.6,53.0,98,73,40,29.96,29.81,12,3,0,0.00
2013-6-17,88.2,74.1,60.0,67.0,60.8,54.0,89,62,34,29.95,29.85,8,2,0,1.00
2013-6-18,74.7,66.0,57.5,60.0,54.5,42.0,93,67,42,30.09,29.90,12,3,0,2.00
2013-6-19,78.3,64.1,49.7,59.0,50.0,40.0,82,60,37,30.18,30.08,7,2,0,0.00
2013-6-20,83.9,68.5,51.9,64.0,56.1,50.0,96,64,35,30.23,30.16,6,1,0,2.00
2013-6-21,88.2,73.6,58.5,70.0,62.2,55.0,91,67,38,30.22,30.07,9,1,0,0.00
2013-6-22,89.6,76.0,68.2,77.0,67.2,59.0,86,74,58,30.12,30.02,9,2,0,2.00
2013-6-23,91.4,79.8,70.0,74.0,69.6,65.0,92,70,44,30.09,29.99,9,2,0,3.00
2013-6-24,89.5,79.1,68.1,74.0,69.3,64.0,91,71,52,30.09,29.94,11,2,0,0.00
2013-6-25,86.2,75.6,68.8,75.0,69.3,64.0,96,81,62,30.02,29.84,14,2,0,1.00
2013-6-26,84.4,74.7,67.7,74.0,69.1,66.0,97,83,65,29.94,29.77,8,1,0,0.00
2013-6-27,84.8,73.6,66.8,73.0,69.9,65.0,97,88,62,29.80,29.66,9,1,0,1.00
2013-6-28,80.5,68.5,63.9,69.0,65.0,60.0,99,89,63,29.67,29.55,16,1,0,0.00
2013-6-29,72.9,67.3,62.1,68.0,64.4,59.0,97,91,76,29.76,29.57,4,0,0,0.00
2013-6-30,79.9,69.2,60.2,65.0,59.8,52.0,95,73,47,29.96,29.75,13,2,0,0.00
2013-7-1,68.1,63.4,60.3,63.0,56.5,49.0,95,80,57,30.07,29.95,8,2,0,0.00
2013-7-2,74.9,67.2,60.2,65.0,60.4,56.0,91,80,67,30.09,30.02,6,2,0,0.00
2013-7-3,85.1,72.6,61.2,71.0,65.5,58.0,93,79,54,30.12,30.05,8,1,0,0.00
2013-7-4,83.3,75.6,69.5,69.0,67.3,64.0,94,76,55,30.15,30.09,9,2,0,0.00
2013-7-5,84.6,75.7,71.3,72.0,68.8,66.0,93,79,55,30.13,30.07,7,1,0,1.00
2013-7-6,85.5,75.2,69.1,74.0,70.3,67.0,96,85,60,30.14,30.01,7,1,0,1.00
2013-7-7,83.9,75.3,70.4,72.0,69.9,66.0,96,83,58,30.06,29.98,9,2,0,0.00
2013-7-8,84.4,74.4,68.6,76.0,70.8,67.0,94,88,75,30.06,29.99,6,1,0,0.00
2013-7-9,90.7,77.8,72.7,77.0,73.1,71.0,97,85,56,30.01,29.91,17,2,0,0.00
2013-7-10,88.0,76.9,66.5,79.0,71.6,58.0,100,84,58,29.96,29.80,14,2,0,0.00
2013-7-11,80.8,69.9,60.5,62.0,58.6,55.0,91,67,44,30.08,29.96,8,2,0,0.00
2013-7-12,83.0,69.6,56.7,65.0,60.2,55.0,96,73,42,30.17,30.08,8,2,0,0.00
2013-7-13,84.8,73.7,62.0,69.0,64.1,59.0,93,72,44,30.24,30.15,11,2,0,0.00
2013-7-14,91.2,78.3,66.6,75.0,69.4,63.0,93,74,51,30.28,30.22,8,1,0,2.00
2013-7-15,93.8,80.8,71.8,80.0,74.5,69.0,96,81,57,30.32,30.24,6,1,0,5.00
2013-7-16,91.8,83.1,76.9,81.0,77.1,74.0,96,82,61,30.32,30.26,7,1,0,2.00
2013-7-17,94.1,83.7,74.5,80.0,75.7,72.0,93,76,55,30.30,30.17,11,2,0,0.00
2013-7-18,95.2,83.8,73.6,82.0,75.3,72.0,95,75,45,30.19,29.98,9,2,0,0.00
2013-7-19,94.5,84.8,76.9,79.0,74.8,70.0,90,71,49,30.00,29.76,15,4,0,0.00
2013-7-20,90.5,75.2,70.6,74.0,68.4,64.0,98,80,44,29.94,29.76,11,2,0,0.00
2013-7-21,84.4,74.2,64.7,68.0,63.3,55.0,87,68,49,30.03,29.94,6,1,0,0.00
2013-7-22,82.1,77.2,70.2,71.0,67.5,65.0,89,72,62,29.87,29.79,3,0,0,2.00
2013-7-23,73.1,68.2,61.1,99.9,64.3,52.0,94,86,68,29.90,29.74,11,2,0,2.00
2013-7-24,74.4,65.2,58.4,57.0,52.6,49.0,79,64,45,30.06,29.90,9,2,0,1.00
2013-7-25,79.6,65.5,51.4,61.0,55.3,50.0,96,71,42,30.13,30.06,5,1,0,0.00
2013-7-26,81.4,69.7,57.5,64.0,59.5,55.0,93,70,48,30.12,29.92,7,1,0,0.00
2013-7-27,76.9,67.5,57.8,69.0,63.2,51.0,95,87,63,29.94,29.75,9,2,0,0.00
2013-7-28,68.6,59.9,52.4,55.0,52.5,50.0,96,78,60,30.01,29.85,14,2,0,0.00
2013-7-29,72.7,63.0,56.7,59.0,55.1,52.0,90,76,57,30.19,30.00,12,2,0,0.00
2013-7-30,82.4,67.2,53.0,64.0,58.5,52.0,99,75,44,30.25,30.14,5,1,0,0.00
2013-7-31,77.8,70.6,65.0,70.0,65.8,62.0,98,85,68,30.14,29.91,5,1,0,0.00
2013-8-1,82.3,69.8,61.8,67.0,62.7,55.0,98,79,43,29.94,29.89,12,2,0,0.00
2013-8-2,74.7,66.4,56.7,66.0,59.7,54.0,94,80,61,29.96,29.87,12,2,0,0.00
2013-8-3,81.4,70.4,59.6,66.0,60.4,55.0,99,71,39,30.06,29.91,6,2,0,0.00
2013-8-4,75.3,65.2,55.0,59.0,55.0,52.0,94,70,46,30.17,30.06,9,2,0,0.00
2013-8-5,74.4,66.2,56.0,61.0,55.4,50.0,87,69,53,30.14,29.98,8,1,0,0.00
2013-8-6,80.6,71.0,65.0,70.0,64.4,59.0,92,80,62,29.99,29.92,6,1,0,0.00
2013-8-7,67.9,48.7,66.1,99.9,74.9,64.0,98,95,91,29.93,29.87,3,0,0,0.00
2013-8-8,78.0,77.8,77.6,67.0,66.2,65.0,67,65,63,29.99,29.98,3,2,0,0.00
2013-8-24,83.5,71.1,56.9,67.0,60.4,54.0,95,69,43,30.33,30.23,6,1,0,0.00
2013-8-25,88.9,73.5,56.7,69.0,63.2,55.0,96,70,42,30.32,30.17,8,2,0,0.00
2013-8-26,89.5,83.5,72.7,75.0,71.6,64.0,86,66,55,30.19,30.00,14,3,0,0.00
2013-8-27,76.3,74.9,73.6,73.0,71.0,70.0,92,88,85,30.02,29.96,5,1,0,0.00
2013-9-13,79.2,79.2,79.2,72.0,72.0,72.0,78,78,78,27.72,27.72,0,0,0,0.00